sensor_id;sensor_type;location;lat;lon;timestamp;pressure;altitude;pressure_sealevel;temperature;humidity
9774;BME280;4926;42.670;23.316;2022-08-01T00:02:12;94461.75;;;21.35;60.02
9774;BME280;4926;42.670;23.316;2022-08-01T00:04:40;94457.50;;;21.34;59.33
9774;BME280;4926;42.670;23.316;2022-08-01T00:07:07;94460.06;;;21.46;59.05
9774;BME280;4926;42.670;23.316;2022-08-01T00:09:33;94458.75;;;21.40;59.02
9774;BME280;4926;42.670;23.316;2022-08-01T00:12:00;94453.72;;;21.38;59.05
9774;BME280;4926;42.670;23.316;2022-08-01T00:14:30;94455.38;;;21.43;58.26
9774;BME280;4926;42.670;23.316;2022-08-01T00:16:57;94449.88;;;21.39;58.29
9774;BME280;4926;42.670;23.316;2022-08-01T00:19:26;94442.13;;;21.38;58.04
9774;BME280;4926;42.670;23.316;2022-08-01T00:21:56;94451.06;;;21.42;57.81
9774;BME280;4926;42.670;23.316;2022-08-01T00:24:26;94439.66;;;21.33;58.15
9774;BME280;4926;42.670;23.316;2022-08-01T00:26:52;94456.78;;;21.37;58.07
9774;BME280;4926;42.670;23.316;2022-08-01T00:29:19;94448.50;;;21.49;57.09
9774;BME280;4926;42.670;23.316;2022-08-01T00:31:47;94446.16;;;21.47;57.08
9774;BME280;4926;42.670;23.316;2022-08-01T00:34:17;94448.06;;;21.47;57.06
9774;BME280;4926;42.670;23.316;2022-08-01T00:36:45;94447.03;;;21.51;56.80
9774;BME280;4926;42.670;23.316;2022-08-01T00:39:16;94457.84;;;21.51;57.29
9774;BME280;4926;42.670;23.316;2022-08-01T00:41:45;94470.47;;;21.25;59.78
9774;BME280;4926;42.670;23.316;2022-08-01T00:44:13;94470.22;;;21.14;60.77
9774;BME280;4926;42.670;23.316;2022-08-01T00:46:42;94470.75;;;21.20;60.50
9774;BME280;4926;42.670;23.316;2022-08-01T00:49:09;94460.88;;;21.12;61.43
9774;BME280;4926;42.670;23.316;2022-08-01T00:51:39;94480.28;;;20.98;63.33
9774;BME280;4926;42.670;23.316;2022-08-01T00:54:06;94486.53;;;20.83;64.79
9774;BME280;4926;42.670;23.316;2022-08-01T00:56:36;94483.75;;;20.79;65.76
9774;BME280;4926;42.670;23.316;2022-08-01T00:59:03;94487.16;;;20.76;66.38
9774;BME280;4926;42.670;23.316;2022-08-01T01:01:33;94472.75;;;20.72;66.55
9774;BME280;4926;42.670;23.316;2022-08-01T01:04:00;94470.94;;;20.76;66.82
9774;BME280;4926;42.670;23.316;2022-08-01T01:06:33;94465.69;;;20.83;66.94
9774;BME280;4926;42.670;23.316;2022-08-01T01:09:29;94447.22;;;20.89;66.91
9774;BME280;4926;42.670;23.316;2022-08-01T01:12:02;94444.72;;;20.80;67.02
9774;BME280;4926;42.670;23.316;2022-08-01T01:14:38;94451.47;;;20.71;66.53
9774;BME280;4926;42.670;23.316;2022-08-01T01:17:11;94443.72;;;20.69;66.31
9774;BME280;4926;42.670;23.316;2022-08-01T01:19:42;94447.19;;;20.70;66.08
9774;BME280;4926;42.670;23.316;2022-08-01T01:22:22;94441.25;;;20.64;66.32
9774;BME280;4926;42.670;23.316;2022-08-01T01:25:04;94440.31;;;20.72;65.92
9774;BME280;4926;42.670;23.316;2022-08-01T01:27:42;94437.06;;;20.67;65.77
9774;BME280;4926;42.670;23.316;2022-08-01T01:30:14;94436.84;;;20.56;65.59
9774;BME280;4926;42.670;23.316;2022-08-01T01:32:44;94421.47;;;20.60;64.56
9774;BME280;4926;42.670;23.316;2022-08-01T01:35:17;94420.09;;;20.51;63.21
9774;BME280;4926;42.670;23.316;2022-08-01T01:37:47;94413.28;;;20.57;62.89
9774;BME280;4926;42.670;23.316;2022-08-01T01:40:17;94405.53;;;20.55;61.36
9774;BME280;4926;42.670;23.316;2022-08-01T01:42:46;94406.66;;;20.54;59.56
9774;BME280;4926;42.670;23.316;2022-08-01T01:45:15;94401.66;;;20.56;58.91
9774;BME280;4926;42.670;23.316;2022-08-01T01:47:43;94397.84;;;20.57;58.52
9774;BME280;4926;42.670;23.316;2022-08-01T01:50:15;94392.16;;;20.62;57.52
9774;BME280;4926;42.670;23.316;2022-08-01T01:52:43;94381.34;;;20.62;56.95
9774;BME280;4926;42.670;23.316;2022-08-01T01:55:13;94384.81;;;20.63;56.68
9774;BME280;4926;42.670;23.316;2022-08-01T01:57:43;94377.28;;;20.72;55.30
9774;BME280;4926;42.670;23.316;2022-08-01T02:00:16;94383.50;;;20.72;55.10
9774;BME280;4926;42.670;23.316;2022-08-01T02:02:48;94369.53;;;20.70;54.18
9774;BME280;4926;42.670;23.316;2022-08-01T02:05:17;94355.28;;;20.73;53.66
9774;BME280;4926;42.670;23.316;2022-08-01T02:07:45;94347.16;;;20.73;52.74
9774;BME280;4926;42.670;23.316;2022-08-01T02:10:15;94352.28;;;20.78;51.61
9774;BME280;4926;42.670;23.316;2022-08-01T02:12:44;94348.09;;;20.81;51.06
9774;BME280;4926;42.670;23.316;2022-08-01T02:15:13;94341.97;;;20.84;51.13
9774;BME280;4926;42.670;23.316;2022-08-01T02:17:44;94344.06;;;20.90;50.35
9774;BME280;4926;42.670;23.316;2022-08-01T02:20:12;94338.66;;;20.90;49.67
9774;BME280;4926;42.670;23.316;2022-08-01T02:22:42;94347.16;;;20.92;49.84
9774;BME280;4926;42.670;23.316;2022-08-01T02:25:17;94339.91;;;20.96;49.36
9774;BME280;4926;42.670;23.316;2022-08-01T02:27:59;94331.88;;;21.00;49.22
9774;BME280;4926;42.670;23.316;2022-08-01T02:30:32;94337.81;;;21.05;49.33
9774;BME280;4926;42.670;23.316;2022-08-01T02:33:07;94339.78;;;21.08;49.34
9774;BME280;4926;42.670;23.316;2022-08-01T02:35:37;94329.38;;;21.11;48.88
9774;BME280;4926;42.670;23.316;2022-08-01T02:38:10;94337.94;;;21.13;49.46
9774;BME280;4926;42.670;23.316;2022-08-01T02:40:44;94342.19;;;21.14;49.29
9774;BME280;4926;42.670;23.316;2022-08-01T02:43:15;94342.56;;;21.12;49.16
9774;BME280;4926;42.670;23.316;2022-08-01T02:45:49;94344.47;;;21.12;49.75
9774;BME280;4926;42.670;23.316;2022-08-01T02:48:20;94343.16;;;21.02;50.13
9774;BME280;4926;42.670;23.316;2022-08-01T02:50:49;94344.47;;;20.92;50.50
9774;BME280;4926;42.670;23.316;2022-08-01T02:53:19;94336.69;;;20.91;50.55
9774;BME280;4926;42.670;23.316;2022-08-01T02:55:47;94344.81;;;20.91;51.39
9774;BME280;4926;42.670;23.316;2022-08-01T02:58:16;94345.31;;;20.96;52.03
9774;BME280;4926;42.670;23.316;2022-08-01T03:00:48;94344.81;;;20.91;52.19
9774;BME280;4926;42.670;23.316;2022-08-01T03:03:15;94349.13;;;20.92;52.53
9774;BME280;4926;42.670;23.316;2022-08-01T03:05:44;94348.59;;;20.86;52.87
9774;BME280;4926;42.670;23.316;2022-08-01T03:08:12;94355.94;;;20.86;52.94
9774;BME280;4926;42.670;23.316;2022-08-01T03:10:42;94360.09;;;20.64;53.45
9774;BME280;4926;42.670;23.316;2022-08-01T03:13:11;94358.41;;;20.56;53.51
9774;BME280;4926;42.670;23.316;2022-08-01T03:15:42;94365.09;;;20.62;54.13
9774;BME280;4926;42.670;23.316;2022-08-01T03:18:10;94372.19;;;20.51;54.69
9774;BME280;4926;42.670;23.316;2022-08-01T03:20:41;94372.19;;;20.51;56.66
9774;BME280;4926;42.670;23.316;2022-08-01T03:23:14;94392.72;;;20.06;60.31
9774;BME280;4926;42.670;23.316;2022-08-01T03:25:43;94403.38;;;19.83;61.60
9774;BME280;4926;42.670;23.316;2022-08-01T03:28:13;94411.13;;;19.69;63.18
9774;BME280;4926;42.670;23.316;2022-08-01T03:30:40;94414.56;;;19.38;64.97
9774;BME280;4926;42.670;23.316;2022-08-01T03:33:10;94416.94;;;19.28;65.64
9774;BME280;4926;42.670;23.316;2022-08-01T03:35:46;94410.44;;;19.17;66.37
9774;BME280;4926;42.670;23.316;2022-08-01T03:38:18;94413.97;;;19.05;67.19
9774;BME280;4926;42.670;23.316;2022-08-01T03:40:50;94406.63;;;19.18;66.99
9774;BME280;4926;42.670;23.316;2022-08-01T03:43:22;94395.13;;;19.33;66.78
9774;BME280;4926;42.670;23.316;2022-08-01T03:45:59;94390.84;;;19.32;65.37
9774;BME280;4926;42.670;23.316;2022-08-01T03:48:29;94392.59;;;19.40;65.80
9774;BME280;4926;42.670;23.316;2022-08-01T03:50:59;94392.81;;;19.47;64.83
9774;BME280;4926;42.670;23.316;2022-08-01T03:53:30;94389.50;;;19.53;63.83
9774;BME280;4926;42.670;23.316;2022-08-01T03:55:58;94394.03;;;19.65;63.00
9774;BME280;4926;42.670;23.316;2022-08-01T03:58:27;94388.13;;;19.75;61.18
9774;BME280;4926;42.670;23.316;2022-08-01T04:00:54;94375.47;;;19.79;59.68
9774;BME280;4926;42.670;23.316;2022-08-01T04:03:22;94383.06;;;19.89;59.92
9774;BME280;4926;42.670;23.316;2022-08-01T04:05:55;94390.22;;;19.97;59.89
9774;BME280;4926;42.670;23.316;2022-08-01T04:08:35;94399.47;;;19.96;61.35
9774;BME280;4926;42.670;23.316;2022-08-01T04:11:04;94411.63;;;19.59;64.39
9774;BME280;4926;42.670;23.316;2022-08-01T04:13:31;94399.13;;;19.39;66.35
9774;BME280;4926;42.670;23.316;2022-08-01T04:16:04;94406.25;;;19.31;66.45
9774;BME280;4926;42.670;23.316;2022-08-01T04:18:31;94410.97;;;19.34;65.10
9774;BME280;4926;42.670;23.316;2022-08-01T04:20:58;94388.31;;;19.39;60.49
9774;BME280;4926;42.670;23.316;2022-08-01T04:23:27;94395.50;;;19.47;59.51
9774;BME280;4926;42.670;23.316;2022-08-01T04:25:59;94402.63;;;19.55;62.78
9774;BME280;4926;42.670;23.316;2022-08-01T04:28:28;94410.19;;;19.34;67.83
9774;BME280;4926;42.670;23.316;2022-08-01T04:30:57;94406.50;;;19.14;69.75
9774;BME280;4926;42.670;23.316;2022-08-01T04:33:26;94406.63;;;19.18;70.79
9774;BME280;4926;42.670;23.316;2022-08-01T04:35:55;94401.91;;;19.15;71.07
9774;BME280;4926;42.670;23.316;2022-08-01T04:38:26;94391.97;;;19.03;70.09
9774;BME280;4926;42.670;23.316;2022-08-01T04:40:58;94402.00;;;19.18;69.88
9774;BME280;4926;42.670;23.316;2022-08-01T04:43:27;94396.34;;;19.23;69.21
9774;BME280;4926;42.670;23.316;2022-08-01T04:45:56;94402.09;;;19.22;67.37
9774;BME280;4926;42.670;23.316;2022-08-01T04:48:29;94394.69;;;19.31;69.12
9774;BME280;4926;42.670;23.316;2022-08-01T04:50:56;94385.22;;;19.25;69.31
9774;BME280;4926;42.670;23.316;2022-08-01T04:53:23;94398.97;;;19.20;69.62
9774;BME280;4926;42.670;23.316;2022-08-01T04:55:53;94401.00;;;19.11;70.42
9774;BME280;4926;42.670;23.316;2022-08-01T04:58:22;94398.41;;;19.14;70.32
9774;BME280;4926;42.670;23.316;2022-08-01T05:00:49;94395.41;;;19.04;71.54
9774;BME280;4926;42.670;23.316;2022-08-01T05:03:16;94395.63;;;19.11;71.37
9774;BME280;4926;42.670;23.316;2022-08-01T05:05:43;94392.66;;;19.28;70.44
9774;BME280;4926;42.670;23.316;2022-08-01T05:08:09;94390.19;;;19.50;69.74
9774;BME280;4926;42.670;23.316;2022-08-01T05:10:36;94380.69;;;19.72;68.92
9774;BME280;4926;42.670;23.316;2022-08-01T05:13:03;94385.16;;;19.80;68.05
9774;BME280;4926;42.670;23.316;2022-08-01T05:15:34;94388.22;;;19.94;68.05
9774;BME280;4926;42.670;23.316;2022-08-01T05:18:02;94386.63;;;19.93;68.12
9774;BME280;4926;42.670;23.316;2022-08-01T05:20:28;94389.34;;;19.93;68.35
9774;BME280;4926;42.670;23.316;2022-08-01T05:23:00;94382.22;;;20.16;68.23
9774;BME280;4926;42.670;23.316;2022-08-01T05:25:29;94377.91;;;20.31;67.44
9774;BME280;4926;42.670;23.316;2022-08-01T05:27:56;94380.16;;;20.44;66.86
9774;BME280;4926;42.670;23.316;2022-08-01T05:30:22;94375.06;;;20.58;66.24
9774;BME280;4926;42.670;23.316;2022-08-01T05:32:53;94373.47;;;20.73;65.29
9774;BME280;4926;42.670;23.316;2022-08-01T05:35:25;94365.28;;;20.88;64.67
9774;BME280;4926;42.670;23.316;2022-08-01T05:37:52;94368.56;;;20.97;64.65
9774;BME280;4926;42.670;23.316;2022-08-01T05:40:19;94369.63;;;21.12;63.31
9774;BME280;4926;42.670;23.316;2022-08-01T05:42:48;94374.47;;;21.22;62.12
9774;BME280;4926;42.670;23.316;2022-08-01T05:45:15;94374.66;;;21.33;60.75
9774;BME280;4926;42.670;23.316;2022-08-01T05:47:42;94374.75;;;21.36;60.51
9774;BME280;4926;42.670;23.316;2022-08-01T05:50:12;94369.44;;;21.43;60.12
9774;BME280;4926;42.670;23.316;2022-08-01T05:52:39;94370.38;;;21.51;60.20
9774;BME280;4926;42.670;23.316;2022-08-01T05:55:07;94360.41;;;21.55;57.80
9774;BME280;4926;42.670;23.316;2022-08-01T05:57:34;94358.25;;;21.64;57.29
9774;BME280;4926;42.670;23.316;2022-08-01T06:00:01;94351.00;;;21.71;55.36
9774;BME280;4926;42.670;23.316;2022-08-01T06:02:28;94370.38;;;21.73;55.80
9774;BME280;4926;42.670;23.316;2022-08-01T06:04:55;94348.50;;;21.82;53.40
9774;BME280;4926;42.670;23.316;2022-08-01T06:07:23;94353.63;;;21.87;52.85
9774;BME280;4926;42.670;23.316;2022-08-01T06:09:50;94346.34;;;21.91;50.72
9774;BME280;4926;42.670;23.316;2022-08-01T06:12:19;94346.03;;;21.96;49.79
9774;BME280;4926;42.670;23.316;2022-08-01T06:14:46;94341.38;;;21.96;49.93
9774;BME280;4926;42.670;23.316;2022-08-01T06:17:13;94338.94;;;21.88;49.72
9774;BME280;4926;42.670;23.316;2022-08-01T06:19:40;94349.03;;;21.91;49.86
9774;BME280;4926;42.670;23.316;2022-08-01T06:22:06;94358.94;;;22.02;49.16
9774;BME280;4926;42.670;23.316;2022-08-01T06:24:35;94352.72;;;22.02;49.52
9774;BME280;4926;42.670;23.316;2022-08-01T06:27:02;94352.09;;;22.12;49.84
9774;BME280;4926;42.670;23.316;2022-08-01T06:29:30;94351.78;;;22.17;49.56
9774;BME280;4926;42.670;23.316;2022-08-01T06:31:56;94338.38;;;22.28;49.56
9774;BME280;4926;42.670;23.316;2022-08-01T06:34:23;94345.66;;;22.46;49.24
9774;BME280;4926;42.670;23.316;2022-08-01T06:36:50;94331.34;;;22.49;49.27
9774;BME280;4926;42.670;23.316;2022-08-01T06:39:17;94344.25;;;22.56;48.76
9774;BME280;4926;42.670;23.316;2022-08-01T06:41:48;94333.44;;;22.59;48.38
9774;BME280;4926;42.670;23.316;2022-08-01T06:44:17;94337.75;;;22.64;48.87
9774;BME280;4926;42.670;23.316;2022-08-01T06:46:48;94326.69;;;22.76;48.36
9774;BME280;4926;42.670;23.316;2022-08-01T06:49:16;94329.38;;;22.72;48.66
9774;BME280;4926;42.670;23.316;2022-08-01T06:51:46;94333.69;;;22.77;49.03
9774;BME280;4926;42.670;23.316;2022-08-01T06:54:13;94334.28;;;22.93;48.56
9774;BME280;4926;42.670;23.316;2022-08-01T06:56:41;94326.34;;;23.10;48.32
9774;BME280;4926;42.670;23.316;2022-08-01T06:59:09;94323.41;;;23.26;47.83
9774;BME280;4926;42.670;23.316;2022-08-01T07:01:36;94327.31;;;23.29;48.01
9774;BME280;4926;42.670;23.316;2022-08-01T07:04:03;94326.44;;;23.21;47.88
9774;BME280;4926;42.670;23.316;2022-08-01T07:06:29;94322.69;;;23.29;48.19
9774;BME280;4926;42.670;23.316;2022-08-01T07:08:56;94318.19;;;23.44;48.23
9774;BME280;4926;42.670;23.316;2022-08-01T07:11:23;94319.78;;;23.48;48.56
9774;BME280;4926;42.670;23.316;2022-08-01T07:13:51;94319.16;;;23.62;47.83
9774;BME280;4926;42.670;23.316;2022-08-01T07:16:19;94303.69;;;23.73;48.32
9774;BME280;4926;42.670;23.316;2022-08-01T07:18:51;94321.50;;;24.07;47.49
9774;BME280;4926;42.670;23.316;2022-08-01T07:21:27;94316.53;;;24.16;47.64
9774;BME280;4926;42.670;23.316;2022-08-01T07:23:53;94321.25;;;24.26;47.77
9774;BME280;4926;42.670;23.316;2022-08-01T07:26:20;94323.63;;;24.35;47.61
9774;BME280;4926;42.670;23.316;2022-08-01T07:28:47;94304.34;;;24.57;46.31
9774;BME280;4926;42.670;23.316;2022-08-01T07:31:14;94300.53;;;24.72;46.71
9774;BME280;4926;42.670;23.316;2022-08-01T07:33:42;94303.00;;;24.98;46.52
9774;BME280;4926;42.670;23.316;2022-08-01T07:36:11;94303.81;;;25.13;45.41
9774;BME280;4926;42.670;23.316;2022-08-01T07:38:38;94301.94;;;25.34;44.92
9774;BME280;4926;42.670;23.316;2022-08-01T07:41:05;94296.88;;;25.22;44.48
9774;BME280;4926;42.670;23.316;2022-08-01T07:43:31;94291.88;;;25.53;43.70
9774;BME280;4926;42.670;23.316;2022-08-01T07:45:58;94287.63;;;25.59;43.44
9774;BME280;4926;42.670;23.316;2022-08-01T07:48:28;94295.78;;;25.45;43.67
9774;BME280;4926;42.670;23.316;2022-08-01T07:50:56;94284.88;;;25.62;43.99
9774;BME280;4926;42.670;23.316;2022-08-01T07:53:26;94286.47;;;25.95;43.01
9774;BME280;4926;42.670;23.316;2022-08-01T07:55:52;94283.72;;;25.98;42.52
9774;BME280;4926;42.670;23.316;2022-08-01T07:58:19;94280.59;;;25.86;43.42
9774;BME280;4926;42.670;23.316;2022-08-01T08:00:46;94290.75;;;25.96;42.75
9774;BME280;4926;42.670;23.316;2022-08-01T08:03:13;94290.75;;;25.92;43.70
9774;BME280;4926;42.670;23.316;2022-08-01T08:05:40;94296.22;;;25.99;42.68
9774;BME280;4926;42.670;23.316;2022-08-01T08:08:11;94310.63;;;25.96;42.52
9774;BME280;4926;42.670;23.316;2022-08-01T08:10:39;94299.31;;;25.77;42.67
9774;BME280;4926;42.670;23.316;2022-08-01T08:13:06;94295.81;;;25.66;43.23
9774;BME280;4926;42.670;23.316;2022-08-01T08:15:33;94293.09;;;25.69;43.49
9774;BME280;4926;42.670;23.316;2022-08-01T08:18:02;94308.28;;;25.81;43.60
9774;BME280;4926;42.670;23.316;2022-08-01T08:20:31;94300.50;;;25.93;42.73
9774;BME280;4926;42.670;23.316;2022-08-01T08:22:58;94293.88;;;25.91;42.23
9774;BME280;4926;42.670;23.316;2022-08-01T08:25:26;94290.38;;;25.83;42.42
9774;BME280;4926;42.670;23.316;2022-08-01T08:27:54;94286.88;;;26.18;42.14
9774;BME280;4926;42.670;23.316;2022-08-01T08:30:21;94293.13;;;26.18;42.35
9774;BME280;4926;42.670;23.316;2022-08-01T08:32:50;94292.31;;;26.25;42.26
9774;BME280;4926;42.670;23.316;2022-08-01T08:35:17;94267.38;;;26.09;41.77
9774;BME280;4926;42.670;23.316;2022-08-01T08:37:47;94290.75;;;26.31;42.26
9774;BME280;4926;42.670;23.316;2022-08-01T08:40:14;94281.75;;;26.48;41.35
9774;BME280;4926;42.670;23.316;2022-08-01T08:42:44;94279.00;;;26.69;41.85
9774;BME280;4926;42.670;23.316;2022-08-01T08:45:12;94270.41;;;26.57;40.63
9774;BME280;4926;42.670;23.316;2022-08-01T08:47:39;94278.22;;;26.58;40.93
9774;BME280;4926;42.670;23.316;2022-08-01T08:50:08;94260.22;;;26.82;40.89
9774;BME280;4926;42.670;23.316;2022-08-01T08:52:42;94269.38;;;27.26;39.97
9774;BME280;4926;42.670;23.316;2022-08-01T08:55:11;94251.50;;;27.11;38.41
9774;BME280;4926;42.670;23.316;2022-08-01T08:57:40;94248.28;;;27.27;38.79
9774;BME280;4926;42.670;23.316;2022-08-01T09:00:11;94243.00;;;26.95;38.58
9774;BME280;4926;42.670;23.316;2022-08-01T09:02:43;94247.59;;;27.12;38.86
9774;BME280;4926;42.670;23.316;2022-08-01T09:05:12;94252.59;;;27.24;39.68
9774;BME280;4926;42.670;23.316;2022-08-01T09:07:39;94246.72;;;27.29;38.08
9774;BME280;4926;42.670;23.316;2022-08-01T09:10:09;94246.00;;;27.18;38.08
9774;BME280;4926;42.670;23.316;2022-08-01T09:12:36;94243.38;;;26.97;38.30
9774;BME280;4926;42.670;23.316;2022-08-01T09:15:04;94231.97;;;27.13;37.91
9774;BME280;4926;42.670;23.316;2022-08-01T09:17:40;94235.50;;;27.13;37.79
9774;BME280;4926;42.670;23.316;2022-08-01T09:20:08;94241.16;;;27.43;37.76
9774;BME280;4926;42.670;23.316;2022-08-01T09:22:48;94241.72;;;27.76;37.61
9774;BME280;4926;42.670;23.316;2022-08-01T09:25:15;94226.63;;;27.61;37.87
9774;BME280;4926;42.670;23.316;2022-08-01T09:27:41;94221.78;;;27.75;36.06
9774;BME280;4926;42.670;23.316;2022-08-01T09:30:13;94234.84;;;27.57;36.54
9774;BME280;4926;42.670;23.316;2022-08-01T09:32:58;94228.22;;;28.06;36.47
9774;BME280;4926;42.670;23.316;2022-08-01T09:35:27;94226.81;;;27.80;37.23
9774;BME280;4926;42.670;23.316;2022-08-01T09:38:14;94235.81;;;27.81;38.00
9774;BME280;4926;42.670;23.316;2022-08-01T09:40:45;94219.44;;;28.25;36.05
9774;BME280;4926;42.670;23.316;2022-08-01T09:43:12;94218.09;;;28.40;36.17
9774;BME280;4926;42.670;23.316;2022-08-01T09:45:40;94205.66;;;28.69;36.11
9774;BME280;4926;42.670;23.316;2022-08-01T09:48:11;94209.97;;;29.00;36.47
9774;BME280;4926;42.670;23.316;2022-08-01T09:50:42;94222.00;;;29.06;36.20
9774;BME280;4926;42.670;23.316;2022-08-01T09:53:09;94216.25;;;28.67;36.22
9774;BME280;4926;42.670;23.316;2022-08-01T09:55:37;94220.84;;;29.07;36.67
9774;BME280;4926;42.670;23.316;2022-08-01T09:58:04;94218.06;;;29.11;37.15
9774;BME280;4926;42.670;23.316;2022-08-01T10:00:32;94225.59;;;29.33;37.17
9774;BME280;4926;42.670;23.316;2022-08-01T10:02:59;94204.75;;;29.62;35.30
9774;BME280;4926;42.670;23.316;2022-08-01T10:05:34;94202.22;;;29.22;35.11
9774;BME280;4926;42.670;23.316;2022-08-01T10:08:03;94210.28;;;29.06;35.62
9774;BME280;4926;42.670;23.316;2022-08-01T10:10:31;94203.41;;;28.91;36.32
9774;BME280;4926;42.670;23.316;2022-08-01T10:13:03;94198.75;;;29.21;36.71
9774;BME280;4926;42.670;23.316;2022-08-01T10:15:30;94204.81;;;29.32;36.32
9774;BME280;4926;42.670;23.316;2022-08-01T10:18:00;94187.63;;;29.32;36.48
9774;BME280;4926;42.670;23.316;2022-08-01T10:20:32;94196.59;;;29.32;35.77
9774;BME280;4926;42.670;23.316;2022-08-01T10:23:01;94192.22;;;29.38;35.20
9774;BME280;4926;42.670;23.316;2022-08-01T10:25:29;94192.66;;;29.60;34.90
9774;BME280;4926;42.670;23.316;2022-08-01T10:28:01;94189.94;;;29.33;35.77
9774;BME280;4926;42.670;23.316;2022-08-01T10:30:33;94192.69;;;29.33;36.16
9774;BME280;4926;42.670;23.316;2022-08-01T10:33:00;94204.19;;;29.25;36.54
9774;BME280;4926;42.670;23.316;2022-08-01T10:35:27;94192.88;;;29.19;36.57
9774;BME280;4926;42.670;23.316;2022-08-01T10:37:57;94198.53;;;29.35;36.54
9774;BME280;4926;42.670;23.316;2022-08-01T10:40:25;94196.69;;;28.99;36.78
9774;BME280;4926;42.670;23.316;2022-08-01T10:42:53;94188.56;;;29.18;36.41
9774;BME280;4926;42.670;23.316;2022-08-01T10:45:20;94204.72;;;29.39;36.82
9774;BME280;4926;42.670;23.316;2022-08-01T10:47:53;94188.56;;;29.45;36.27
9774;BME280;4926;42.670;23.316;2022-08-01T10:50:28;94179.09;;;29.76;36.61
9774;BME280;4926;42.670;23.316;2022-08-01T10:53:10;94182.72;;;30.16;34.49
9774;BME280;4926;42.670;23.316;2022-08-01T10:55:48;94189.09;;;29.63;35.19
9774;BME280;4926;42.670;23.316;2022-08-01T10:58:21;94184.19;;;29.51;35.61
9774;BME280;4926;42.670;23.316;2022-08-01T11:00:48;94179.03;;;29.30;35.83
9774;BME280;4926;42.670;23.316;2022-08-01T11:03:32;94176.31;;;29.53;35.30
9774;BME280;4926;42.670;23.316;2022-08-01T11:06:01;94173.00;;;29.38;35.76
9774;BME280;4926;42.670;23.316;2022-08-01T11:08:35;94170.00;;;29.29;35.58
9774;BME280;4926;42.670;23.316;2022-08-01T11:11:06;94187.50;;;28.45;37.33
9774;BME280;4926;42.670;23.316;2022-08-01T11:14:02;94180.13;;;28.42;37.51
9774;BME280;4926;42.670;23.316;2022-08-01T11:16:34;94183.91;;;28.85;36.96
9774;BME280;4926;42.670;23.316;2022-08-01T11:19:04;94180.75;;;28.87;36.56
9774;BME280;4926;42.670;23.316;2022-08-01T11:21:59;94180.09;;;29.09;36.61
9774;BME280;4926;42.670;23.316;2022-08-01T11:24:55;94175.44;;;29.59;36.03
9774;BME280;4926;42.670;23.316;2022-08-01T11:27:28;94162.13;;;30.04;35.08
9774;BME280;4926;42.670;23.316;2022-08-01T11:30:24;94155.78;;;29.88;35.06
9774;BME280;4926;42.670;23.316;2022-08-01T11:32:53;94177.84;;;29.54;35.56
9774;BME280;4926;42.670;23.316;2022-08-01T11:35:21;94169.03;;;29.16;36.11
9774;BME280;4926;42.670;23.316;2022-08-01T11:37:49;94172.16;;;28.88;36.85
9774;BME280;4926;42.670;23.316;2022-08-01T11:40:21;94172.34;;;29.01;36.73
9774;BME280;4926;42.670;23.316;2022-08-01T11:42:49;94168.94;;;29.23;36.06
9774;BME280;4926;42.670;23.316;2022-08-01T11:45:16;94172.22;;;29.11;36.44
9774;BME280;4926;42.670;23.316;2022-08-01T11:47:44;94158.16;;;29.09;36.62
9774;BME280;4926;42.670;23.316;2022-08-01T11:50:31;94166.56;;;29.48;36.09
9774;BME280;4926;42.670;23.316;2022-08-01T11:53:01;94161.16;;;29.18;36.02
9774;BME280;4926;42.670;23.316;2022-08-01T11:55:30;94170.28;;;29.08;36.39
9774;BME280;4926;42.670;23.316;2022-08-01T11:58:01;94171.69;;;29.46;36.48
9774;BME280;4926;42.670;23.316;2022-08-01T12:00:28;94175.00;;;29.88;35.88
9774;BME280;4926;42.670;23.316;2022-08-01T12:02:58;94153.34;;;30.13;35.17
9774;BME280;4926;42.670;23.316;2022-08-01T12:05:25;94150.66;;;30.09;35.17
9774;BME280;4926;42.670;23.316;2022-08-01T12:07:53;94157.41;;;29.58;35.76
9774;BME280;4926;42.670;23.316;2022-08-01T12:10:21;94161.13;;;29.72;36.21
9774;BME280;4926;42.670;23.316;2022-08-01T12:12:51;94151.09;;;30.08;35.43
9774;BME280;4926;42.670;23.316;2022-08-01T12:15:20;94140.50;;;30.29;35.27
9774;BME280;4926;42.670;23.316;2022-08-01T12:17:49;94147.97;;;30.68;35.31
9774;BME280;4926;42.670;23.316;2022-08-01T12:20:20;94146.63;;;30.76;34.53
9774;BME280;4926;42.670;23.316;2022-08-01T12:22:47;94145.22;;;30.68;34.45
9774;BME280;4926;42.670;23.316;2022-08-01T12:25:15;94157.19;;;30.78;34.69
9774;BME280;4926;42.670;23.316;2022-08-01T12:27:44;94145.22;;;30.68;33.72
9774;BME280;4926;42.670;23.316;2022-08-01T12:30:14;94143.50;;;30.74;34.41
9774;BME280;4926;42.670;23.316;2022-08-01T12:32:42;94139.53;;;31.14;34.59
9774;BME280;4926;42.670;23.316;2022-08-01T12:35:11;94146.25;;;31.29;33.84
9774;BME280;4926;42.670;23.316;2022-08-01T12:37:40;94142.66;;;30.97;34.34
9774;BME280;4926;42.670;23.316;2022-08-01T12:40:15;94141.41;;;31.01;34.21
9774;BME280;4926;42.670;23.316;2022-08-01T12:42:44;94147.22;;;31.23;33.96
9774;BME280;4926;42.670;23.316;2022-08-01T12:45:14;94147.66;;;31.37;33.58
9774;BME280;4926;42.670;23.316;2022-08-01T12:47:42;94141.31;;;31.72;33.40
9774;BME280;4926;42.670;23.316;2022-08-01T12:50:12;94135.91;;;32.01;33.54
9774;BME280;4926;42.670;23.316;2022-08-01T12:52:39;94125.16;;;31.91;33.40
9774;BME280;4926;42.670;23.316;2022-08-01T12:55:09;94123.13;;;32.36;32.63
9774;BME280;4926;42.670;23.316;2022-08-01T12:57:38;94110.25;;;32.33;31.90
9774;BME280;4926;42.670;23.316;2022-08-01T13:00:11;94119.03;;;31.99;32.52
9774;BME280;4926;42.670;23.316;2022-08-01T13:02:40;94122.59;;;32.12;32.74
9774;BME280;4926;42.670;23.316;2022-08-01T13:05:08;94124.38;;;31.90;32.84
9774;BME280;4926;42.670;23.316;2022-08-01T13:07:41;94124.97;;;31.98;32.72
9774;BME280;4926;42.670;23.316;2022-08-01T13:10:10;94121.88;;;31.96;32.83
9774;BME280;4926;42.670;23.316;2022-08-01T13:12:38;94116.47;;;32.21;32.87
9774;BME280;4926;42.670;23.316;2022-08-01T13:15:28;94112.84;;;32.24;32.89
9774;BME280;4926;42.670;23.316;2022-08-01T13:18:00;94100.94;;;32.27;32.56
9774;BME280;4926;42.670;23.316;2022-08-01T13:20:29;94103.41;;;32.37;33.10
9774;BME280;4926;42.670;23.316;2022-08-01T13:23:20;94116.84;;;32.35;32.72
9774;BME280;4926;42.670;23.316;2022-08-01T13:25:53;94106.81;;;32.29;32.91